Time;durP1;ratioP1;P1;durP2;ratioP2;P2;SDS_P1;SDS_P2;PMS_P1;PMS_P2;Temp;Humidity;BMP_temperature;BMP_pressure;BME280_temperature;BME280_humidity;BME280_pressure;Samples;Min_cycle;Max_cycle;Signal;HPM_P1;HPM_P2
2022/01/02 00:00:47;;;;;;;7.15;3.47;;;;;;;12.65;91.17;101676.22;5012324;28;19933;-47
2022/01/02 00:03:35;;;;;;;8.98;3.42;;;;;;;12.61;90.69;101673.22;5013159;28;20061;-48
2022/01/02 00:06:25;;;;;;;10.50;3.92;;;;;;;12.59;89.63;101680.84;5013150;28;20048;-46
2022/01/02 00:09:22;;;;;;;8.35;3.67;;;;;;;12.59;90.30;101694.50;5001500;28;20165;-49
2022/01/02 00:12:13;;;;;;;8.60;3.88;;;;;;;12.58;89.05;101698.34;4994220;28;20516;-48
2022/01/02 00:15:05;;;;;;;11.25;4.05;;;;;;;12.60;89.37;101706.28;4994169;28;20109;-48
2022/01/02 00:17:52;;;;;;;7.72;3.85;;;;;;;12.61;89.54;101714.22;4994905;28;20201;-47
2022/01/02 00:20:47;;;;;;;7.75;3.80;;;;;;;12.59;89.27;101713.66;5013331;28;20042;-51
2022/01/02 00:23:47;;;;;;;9.10;3.88;;;;;;;12.58;88.30;101712.84;5013884;28;20136;-53
2022/01/02 00:26:41;;;;;;;9.35;4.35;;;;;;;12.56;87.66;101742.34;5011752;28;20041;-48
2022/01/02 00:29:27;;;;;;;10.68;4.13;;;;;;;12.56;87.29;101738.78;5012927;28;20080;-50
2022/01/02 00:32:15;;;;;;;9.95;4.20;;;;;;;12.57;87.34;101734.94;5013493;28;20052;-47
2022/01/02 00:35:01;;;;;;;7.25;3.70;;;;;;;12.57;87.59;101732.22;5013524;28;20100;-48
2022/01/02 00:37:47;;;;;;;6.80;3.40;;;;;;;12.58;87.30;101728.41;5010945;28;20109;-47
2022/01/02 00:40:34;;;;;;;;;;;;;;;12.57;88.28;101715.81;5014002;28;20139;-46
2022/01/02 00:43:38;;;;;;;8.07;4.05;;;;;;;12.59;88.33;101702.72;5012567;28;20004;-46
2022/01/02 00:46:27;;;;;;;8.65;3.75;;;;;;;12.57;87.90;101694.75;5012441;28;20041;-49
2022/01/02 00:49:16;;;;;;;8.00;3.58;;;;;;;12.55;88.97;101691.50;4987850;28;20048;-47
2022/01/02 00:52:04;;;;;;;11.60;3.70;;;;;;;12.53;89.49;101685.47;4993629;28;20130;-48
2022/01/02 00:54:55;;;;;;;12.23;3.90;;;;;;;12.56;90.37;101695.84;4993882;28;20154;-48
2022/01/02 00:57:43;;;;;;;10.43;4.00;;;;;;;12.56;90.16;101686.84;4992368;28;20185;-48
2022/01/02 01:00:30;;;;;;;10.30;4.03;;;;;;;12.55;90.54;101696.09;4993207;28;20069;-49
2022/01/02 01:03:38;;;;;;;9.27;4.10;;;;;;;12.55;91.49;101694.22;4992434;28;20046;-51
2022/01/02 01:06:25;;;;;;;10.63;4.22;;;;;;;12.54;91.85;101697.22;4992648;28;20058;-52
2022/01/02 01:09:13;;;;;;;10.10;3.92;;;;;;;12.51;92.42;101697.72;5002165;28;20049;-52
2022/01/02 01:12:01;;;;;;;7.30;3.53;;;;;;;12.46;92.63;101681.25;4979126;28;20042;-48
2022/01/02 01:14:49;;;;;;;8.48;3.60;;;;;;;12.49;93.66;101686.22;5006130;28;20193;-50
2022/01/02 01:17:39;;;;;;;6.72;3.85;;;;;;;12.46;92.94;101678.53;4978846;28;20064;-49
2022/01/02 01:20:32;;;;;;;8.95;3.72;;;;;;;12.45;93.23;101672.25;5007064;28;20449;-49
2022/01/02 01:23:19;;;;;;;8.18;3.72;;;;;;;12.43;93.98;101668.13;4992680;28;20053;-45
2022/01/02 01:26:07;;;;;;;6.53;3.80;;;;;;;12.41;93.66;101665.66;4997036;28;20527;-48
2022/01/02 01:28:53;;;;;;;9.73;4.15;;;;;;;12.43;94.41;101665.38;5012860;28;20049;-43
2022/01/02 01:31:39;;;;;;;7.05;3.65;;;;;;;12.42;94.79;101650.91;5011345;28;20049;-50
2022/01/02 01:34:25;;;;;;;;;;;;;;;12.44;95.37;101650.66;5006281;28;20061;-48
2022/01/02 01:37:12;;;;;;;9.77;4.03;;;;;;;12.45;95.35;101660.50;4993476;28;19929;-52
2022/01/02 01:40:00;;;;;;;9.40;3.80;;;;;;;12.47;96.20;101644.66;5006159;28;20061;-50
2022/01/02 01:42:59;;;;;;;10.85;4.00;;;;;;;12.44;96.09;101642.47;5011887;28;20044;-47
2022/01/02 01:45:53;;;;;;;10.02;3.90;;;;;;;12.41;96.04;101640.22;5015246;28;20052;-49
2022/01/02 01:48:41;;;;;;;8.93;3.90;;;;;;;12.39;96.26;101628.72;5015643;28;20161;-47
2022/01/02 01:51:30;;;;;;;10.68;3.92;;;;;;;12.43;97.03;101621.66;5005178;28;20169;-48
2022/01/02 01:54:17;;;;;;;9.68;4.40;;;;;;;12.41;96.65;101621.09;5009602;28;20511;-47
2022/01/02 01:57:03;;;;;;;9.15;3.70;;;;;;;12.41;96.71;101629.28;5009985;28;20444;-49
2022/01/02 01:59:52;;;;;;;8.25;3.75;;;;;;;12.40;97.02;101622.19;5013934;28;20044;-48
2022/01/02 02:02:39;;;;;;;8.43;3.53;;;;;;;12.40;96.79;101609.34;5015337;28;20042;-49
2022/01/02 02:05:25;;;;;;;7.43;3.40;;;;;;;12.42;96.90;101600.88;5015660;28;20123;-47
2022/01/02 02:08:11;;;;;;;;;;;;;;;12.44;97.86;101604.19;5014457;28;20441;-47
2022/01/02 02:10:58;;;;;;;11.00;3.70;;;;;;;12.43;97.94;101589.69;4997195;28;19928;-48
2022/01/02 02:13:47;;;;;;;8.80;3.35;;;;;;;12.44;97.82;101587.78;5009725;28;20046;-49
2022/01/02 02:16:35;;;;;;;10.35;3.47;;;;;;;12.42;97.72;101579.84;4981653;28;20046;-48
2022/01/02 02:19:21;;;;;;;9.60;3.40;;;;;;;12.44;98.30;101580.41;4994914;28;20042;-48
2022/01/02 02:22:08;;;;;;;8.05;2.88;;;;;;;12.46;98.57;101575.50;4995560;28;20424;-45
2022/01/02 02:24:54;;;;;;;10.18;3.40;;;;;;;12.47;98.06;101576.31;4996314;28;20200;-47
2022/01/02 02:27:43;;;;;;;;;;;;;;;12.50;99.32;101564.84;5028439;28;20037;-49
2022/01/02 02:30:32;;;;;;;9.07;3.50;;;;;;;12.49;98.29;101574.16;5014689;28;19928;-50
2022/01/02 02:33:19;;;;;;;13.80;3.83;;;;;;;12.46;97.94;101556.38;5014280;28;20066;-49
2022/01/02 02:36:07;;;;;;;8.90;3.47;;;;;;;12.48;98.23;101550.63;5015002;28;20053;-47
2022/01/02 02:38:54;;;;;;;8.82;3.85;;;;;;;12.48;98.46;101545.16;5006389;28;20046;-48
2022/01/02 02:41:42;;;;;;;;;;;;;;;12.52;99.32;101541.66;5009700;28;20049;-48
2022/01/02 02:44:36;;;;;;;9.82;4.00;;;;;;;12.50;98.87;101543.00;5026765;28;19929;-49
2022/01/02 02:50:29;;;;;;;9.60;3.65;;;;;;;12.51;98.66;101523.59;4994906;28;20049;-49
2022/01/02 02:53:16;;;;;;;8.57;3.40;;;;;;;12.51;98.39;101526.34;5009805;28;20516;-47
2022/01/02 02:56:12;;;;;;;10.32;3.72;;;;;;;12.53;98.93;101524.16;4993619;28;20042;-48
2022/01/02 02:58:59;;;;;;;9.02;3.72;;;;;;;12.56;98.45;101514.63;4995014;28;20052;-53
2022/01/02 03:01:48;;;;;;;9.52;3.88;;;;;;;12.59;98.89;101511.34;5009397;28;20042;-49
2022/01/02 03:04:34;;;;;;;9.85;4.13;;;;;;;12.60;98.83;101507.50;4999562;28;20053;-51
2022/01/02 03:07:21;;;;;;;6.88;3.20;;;;;;;12.56;98.58;101503.69;4999993;28;20444;-48
2022/01/02 03:10:10;;;;;;;12.68;3.90;;;;;;;12.54;98.18;101500.38;5014291;28;20558;-50
2022/01/02 03:12:56;;;;;;;10.82;3.67;;;;;;;12.53;98.29;101502.31;4997371;28;20053;-52
2022/01/02 03:15:42;;;;;;;;;;;;;;;12.50;98.09;101505.53;4995979;28;20078;-51
2022/01/02 03:18:28;;;;;;;11.45;3.50;;;;;;;12.51;97.67;101506.38;4994136;28;19932;-49
2022/01/02 03:21:14;;;;;;;;;;;;;;;12.51;97.26;101500.94;4994715;28;20084;-53
2022/01/02 03:24:01;;;;;;;12.77;3.92;;;;;;;12.52;96.67;101517.03;5012389;28;19929;-49
2022/01/02 03:26:48;;;;;;;9.23;3.22;;;;;;;12.57;97.05;101505.31;5014971;28;20129;-49
2022/01/02 03:29:35;;;;;;;9.23;3.50;;;;;;;12.55;96.26;101507.50;4999574;28;20528;-50
2022/01/02 03:32:21;;;;;;;;;;;;;;;12.57;97.55;101516.25;4998250;28;20404;-47
2022/01/02 03:35:07;;;;;;;11.40;3.75;;;;;;;12.55;96.71;101507.50;5018904;28;20447;-48
2022/01/02 03:37:54;;;;;;;8.55;3.40;;;;;;;12.59;96.95;101514.09;4994147;28;20061;-49
2022/01/02 03:40:41;;;;;;;7.80;3.47;;;;;;;12.57;97.30;101510.78;4993894;28;20042;-53
2022/01/02 03:43:27;;;;;;;;;;;;;;;12.57;98.04;101508.06;4995484;28;20044;-50
2022/01/02 03:46:15;;;;;;;9.93;3.47;;;;;;;12.56;97.67;101504.50;4979680;28;19921;-48
2022/01/02 03:49:01;;;;;;;11.00;3.53;;;;;;;12.54;98.21;101500.38;5007794;28;20049;-48
2022/01/02 03:51:47;;;;;;;9.45;3.80;;;;;;;12.61;98.85;101503.72;4994737;28;20405;-51
2022/01/02 03:54:34;;;;;;;10.02;3.42;;;;;;;12.60;99.52;101493.03;4993981;28;20077;-49
2022/01/02 03:57:20;;;;;;;10.13;3.30;;;;;;;12.55;99.57;101491.09;4994803;28;20411;-47
2022/01/02 04:00:08;;;;;;;;;;;;;;;12.56;100.00;101499.03;4994038;28;20628;-48
2022/01/02 04:02:58;;;;;;;7.25;3.30;;;;;;;12.51;99.05;101490.00;5010573;28;20421;-48
2022/01/02 04:05:46;;;;;;;9.20;3.20;;;;;;;12.50;100.00;101477.41;5007121;28;20057;-48
2022/01/02 04:08:32;;;;;;;8.32;3.45;;;;;;;12.55;100.00;101467.34;4979173;28;20053;-50
2022/01/02 04:11:19;;;;;;;7.68;3.60;;;;;;;12.50;99.42;101461.81;4993486;28;20078;-49
2022/01/02 04:14:06;;;;;;;8.23;3.60;;;;;;;12.51;100.00;101452.53;5006869;28;20056;-50
2022/01/02 04:16:52;;;;;;;12.10;3.72;;;;;;;12.49;99.23;101462.09;5012107;28;20042;-48
2022/01/02 04:19:38;;;;;;;11.15;3.35;;;;;;;12.45;99.21;101450.84;5012998;28;20064;-47
2022/01/02 04:22:26;;;;;;;8.82;3.50;;;;;;;12.42;99.53;101445.09;5013869;28;20096;-49
2022/01/02 04:25:12;;;;;;;;;;;;;;;12.41;100.00;101446.19;5012912;28;20135;-45
2022/01/02 04:27:59;;;;;;;7.70;3.10;;;;;;;12.41;100.00;101443.44;5012858;28;19928;-51
2022/01/02 04:30:45;;;;;;;;;;;;;;;12.40;99.53;101444.53;5013360;28;20068;-49
2022/01/02 04:33:31;;;;;;;9.00;3.33;;;;;;;12.32;99.58;101443.97;4998461;28;19967;-47
2022/01/02 04:36:18;;;;;;;8.93;4.00;;;;;;;12.31;99.93;101445.06;5012747;28;20053;-50
2022/01/02 04:39:04;;;;;;;8.38;3.65;;;;;;;12.32;99.74;101443.97;4998478;28;20096;-52
2022/01/02 04:41:50;;;;;;;;;;;;;;;12.33;99.46;101436.56;5012767;28;20041;-48
2022/01/02 04:44:37;;;;;;;11.50;3.85;;;;;;;12.32;99.49;101435.75;5013681;28;19921;-46
2022/01/02 04:47:23;;;;;;;8.50;3.53;;;;;;;12.30;98.89;101435.19;5012838;28;20570;-46
2022/01/02 04:50:09;;;;;;;;;;;;;;;12.35;100.00;101432.50;5013421;28;20049;-49
2022/01/02 04:52:56;;;;;;;8.82;2.72;;;;;;;12.40;100.00;101422.69;4998718;28;19928;-45
2022/01/02 04:55:42;;;;;;;7.72;3.40;;;;;;;12.39;99.54;101410.09;4992522;28;20070;-47
2022/01/02 04:58:28;;;;;;;9.20;3.50;;;;;;;12.40;100.00;101414.47;4993642;28;20174;-46
2022/01/02 05:01:16;;;;;;;;;;;;;;;12.36;100.00;101401.38;4995103;28;20073;-47
2022/01/02 05:04:03;;;;;;;8.07;3.05;;;;;;;12.38;100.00;101392.06;5000330;28;20012;-49
2022/01/02 05:06:50;;;;;;;9.25;3.30;;;;;;;12.39;99.86;101385.50;5012060;28;20052;-48
2022/01/02 05:09:37;;;;;;;10.63;3.90;;;;;;;12.33;100.00;101379.19;5012096;28;20105;-45
2022/01/02 05:12:22;;;;;;;;;;;;;;;12.36;100.00;101378.66;5004885;28;20112;-49
2022/01/02 05:15:09;;;;;;;7.82;2.63;;;;;;;12.32;100.00;101366.63;4992466;28;19930;-48
2022/01/02 05:17:55;;;;;;;9.88;3.55;;;;;;;12.29;100.00;101358.94;4993013;28;20405;-48
2022/01/02 05:20:44;;;;;;;7.15;3.15;;;;;;;12.27;100.00;101361.97;4993291;28;20048;-47
2022/01/02 05:23:30;;;;;;;6.50;3.10;;;;;;;12.30;100.00;101361.41;5003403;28;20108;-48
2022/01/02 05:26:17;;;;;;;11.68;3.30;;;;;;;12.28;100.00;101347.19;5006235;28;20053;-49
2022/01/02 05:29:05;;;;;;;7.95;3.42;;;;;;;12.25;100.00;101334.09;5006364;28;20408;-48
2022/01/02 05:31:51;;;;;;;7.38;2.88;;;;;;;12.27;100.00;101334.63;5006128;28;20061;-48
2022/01/02 05:34:37;;;;;;;8.43;3.30;;;;;;;12.28;100.00;101332.72;5024879;28;20046;-45
2022/01/02 05:37:25;;;;;;;7.15;2.88;;;;;;;12.30;100.00;101331.38;5011939;28;20061;-47
2022/01/02 05:40:12;;;;;;;9.02;3.28;;;;;;;12.32;100.00;101322.91;5013133;28;20069;-48
2022/01/02 05:43:05;;;;;;;10.38;3.63;;;;;;;12.33;100.00;101328.09;5009407;28;20062;-50
2022/01/02 05:45:51;;;;;;;8.68;2.85;;;;;;;12.33;99.88;101324.53;5012175;28;20038;-49
2022/01/02 05:48:38;;;;;;;11.02;3.70;;;;;;;12.26;99.31;101313.84;4997507;28;20385;-46
2022/01/02 05:51:25;;;;;;;8.93;3.70;;;;;;;12.18;99.59;101310.84;5011766;28;20053;-47
2022/01/02 05:54:11;;;;;;;8.43;2.90;;;;;;;12.28;100.00;101302.66;5009892;28;20057;-50
2022/01/02 05:56:58;;;;;;;5.20;2.78;;;;;;;12.56;100.00;101307.69;5011683;28;20042;-50
2022/01/02 05:59:44;;;;;;;;;;;;;;;12.68;99.14;101291.03;5011944;28;20065;-48
2022/01/02 06:02:31;;;;;;;6.32;3.30;;;;;;;12.53;98.88;101280.03;5011374;28;20403;-48
2022/01/02 06:05:17;;;;;;;8.30;3.60;;;;;;;12.47;99.05;101276.50;4992976;28;20053;-48
2022/01/02 06:08:04;;;;;;;10.32;3.60;;;;;;;12.22;99.35;101258.13;5005708;28;20480;-49
2022/01/02 06:10:50;;;;;;;11.85;3.70;;;;;;;12.10;99.39;101243.88;5005565;28;20086;-52
2022/01/02 06:13:36;;;;;;;9.80;3.83;;;;;;;12.05;99.46;101241.09;4993044;28;20050;-48
2022/01/02 06:16:23;;;;;;;10.18;3.42;;;;;;;12.01;99.69;101223.63;5018475;28;20456;-53
2022/01/02 06:19:08;;;;;;;10.38;3.33;;;;;;;12.16;99.75;101212.75;5004310;28;20713;-54
2022/01/02 06:21:55;;;;;;;11.45;3.60;;;;;;;12.13;98.44;101202.38;4992625;28;20631;-52
2022/01/02 06:24:41;;;;;;;8.68;3.13;;;;;;;12.13;100.00;101216.03;4992072;28;20120;-48
2022/01/02 06:27:27;;;;;;;9.00;3.42;;;;;;;12.31;100.00;101207.34;4991937;28;20045;-52
2022/01/02 06:30:14;;;;;;;7.50;3.60;;;;;;;12.39;100.00;101196.94;4993787;28;20047;-52
2022/01/02 06:33:01;;;;;;;6.72;2.80;;;;;;;12.35;100.00;101181.09;5000519;28;20492;-52
2022/01/02 06:35:49;;;;;;;8.65;3.13;;;;;;;12.40;100.00;101176.72;5014293;28;20049;-49
2022/01/02 06:38:36;;;;;;;9.65;3.70;;;;;;;12.33;99.45;101158.69;5014680;28;20420;-45
2022/01/02 06:41:22;;;;;;;12.63;3.22;;;;;;;12.24;100.00;101149.41;5014281;28;20506;-49
2022/01/02 06:44:08;;;;;;;12.13;4.10;;;;;;;12.22;99.15;101137.91;5015558;28;20614;-49
2022/01/02 06:46:54;;;;;;;9.80;3.70;;;;;;;12.17;99.08;101129.72;5008275;28;20120;-52
2022/01/02 06:49:41;;;;;;;11.30;3.50;;;;;;;12.17;99.56;101124.25;4995846;28;20034;-50
2022/01/02 06:52:27;;;;;;;6.28;2.55;;;;;;;12.18;99.42;101116.88;4995014;28;20038;-51
2022/01/02 06:55:14;;;;;;;10.05;3.33;;;;;;;12.28;100.00;101104.03;4994702;28;20046;-49
2022/01/02 06:58:00;;;;;;;8.13;2.95;;;;;;;12.14;98.79;101092.00;4995833;28;20481;-50
2022/01/02 07:00:46;;;;;;;10.68;3.47;;;;;;;12.12;98.25;101092.28;4994978;28;20393;-49
2022/01/02 07:03:33;;;;;;;10.35;3.00;;;;;;;12.14;99.52;101094.72;5000300;28;20101;-53
2022/01/02 07:06:19;;;;;;;6.90;2.90;;;;;;;12.15;99.39;101093.66;4994669;28;20393;-53
2022/01/02 07:09:06;;;;;;;5.82;2.63;;;;;;;12.22;100.00;101083.28;4992363;28;20468;-50
2022/01/02 07:11:51;;;;;;;;;;;;;;;12.25;100.00;101093.66;4996068;28;20042;-48
2022/01/02 07:14:37;;;;;;;;;;;;;;;12.19;100.00;101092.00;4995848;28;19929;-47
2022/01/02 07:17:23;;;;;;;8.77;2.53;;;;;;;12.24;100.00;101092.03;4995927;28;19927;-51
2022/01/02 07:20:11;;;;;;;8.13;2.92;;;;;;;12.41;100.00;101079.97;4995285;28;20058;-49
2022/01/02 07:22:57;;;;;;;7.28;3.10;;;;;;;12.49;100.00;101076.72;4995089;28;20073;-48
2022/01/02 07:25:44;;;;;;;9.52;3.58;;;;;;;12.39;99.58;101068.50;4995015;28;20045;-48
2022/01/02 07:28:33;;;;;;;8.18;3.00;;;;;;;12.21;98.35;101076.16;4996026;28;20504;-49
2022/01/02 07:31:19;;;;;;;8.70;3.17;;;;;;;12.08;96.48;101093.09;4995266;28;20065;-50
2022/01/02 07:34:05;;;;;;;6.72;3.08;;;;;;;12.04;95.94;101100.19;5010573;28;20050;-48
2022/01/02 07:36:51;;;;;;;6.65;2.92;;;;;;;12.01;96.60;101076.97;5014612;28;20045;-48
2022/01/02 07:39:38;;;;;;;9.10;3.25;;;;;;;12.02;95.45;101055.94;5015019;28;20052;-50
2022/01/02 07:42:24;;;;;;;11.20;3.95;;;;;;;12.00;95.41;101050.78;5014111;28;20399;-50
2022/01/02 07:45:17;;;;;;;10.07;3.47;;;;;;;11.93;95.38;101037.38;5013556;28;20057;-48
2022/01/02 07:48:04;;;;;;;7.18;3.05;;;;;;;11.93;95.26;101031.09;5012984;28;20046;-46
2022/01/02 07:50:50;;;;;;;6.82;2.97;;;;;;;12.10;98.97;101048.03;4994853;28;20047;-53
2022/01/02 07:53:36;;;;;;;11.73;3.45;;;;;;;12.54;100.00;101044.72;4999249;28;20180;-49
2022/01/02 07:56:24;;;;;;;6.57;3.20;;;;;;;12.62;99.00;101032.41;5014230;28;20119;-49
2022/01/02 07:59:12;;;;;;;5.80;2.42;;;;;;;12.67;100.00;101062.47;4999525;28;20051;-52
2022/01/02 08:01:58;;;;;;;11.52;3.10;;;;;;;12.82;100.00;101080.78;4993368;28;20045;-45
2022/01/02 08:04:45;;;;;;;10.48;3.20;;;;;;;12.59;97.37;101093.09;4994373;28;20130;-49
2022/01/02 08:07:32;;;;;;;6.60;2.80;;;;;;;12.70;100.00;101102.09;4994321;28;20053;-53
2022/01/02 08:10:18;;;;;;;6.13;2.88;;;;;;;12.71;100.00;101088.16;5003598;28;20053;-49
2022/01/02 08:13:04;;;;;;;6.90;3.03;;;;;;;12.70;99.99;101086.53;5011961;28;20608;-49
2022/01/02 08:15:51;;;;;;;4.57;2.45;;;;;;;12.70;100.00;101072.88;5013560;28;20065;-49
2022/01/02 08:18:37;;;;;;;7.57;3.05;;;;;;;12.78;99.66;101077.75;5011252;28;20061;-49
2022/01/02 08:21:23;;;;;;;7.30;2.90;;;;;;;12.79;98.49;101081.31;5006911;28;20112;-47
2022/01/02 08:24:09;;;;;;;7.00;2.60;;;;;;;12.92;100.00;101085.41;5011946;28;20053;-50
2022/01/02 08:26:56;;;;;;;10.90;3.30;;;;;;;12.92;98.19;101101.81;5013943;28;20045;-52
2022/01/02 08:29:42;;;;;;;12.07;3.70;;;;;;;12.81;97.50;101094.72;5002705;28;20559;-48
2022/01/02 08:32:28;;;;;;;10.85;3.40;;;;;;;12.54;96.32;101096.66;5010759;28;20100;-49
2022/01/02 08:35:15;;;;;;;10.98;3.70;;;;;;;12.54;95.97;101104.03;5013915;28;20052;-48
2022/01/02 08:38:01;;;;;;;10.27;3.50;;;;;;;12.34;94.04;101086.56;5013519;28;20512;-48
2022/01/02 08:40:50;;;;;;;18.73;5.20;;;;;;;12.40;95.45;101038.19;5013625;28;20095;-51
2022/01/02 08:43:36;;;;;;;7.07;3.00;;;;;;;12.25;93.83;101093.66;5013605;28;20117;-52
2022/01/02 08:46:22;;;;;;;9.23;3.38;;;;;;;12.15;94.01;101085.47;5013362;28;20053;-50
2022/01/02 08:49:09;;;;;;;8.00;3.22;;;;;;;12.20;94.86;101095.56;5013551;28;20377;-50
2022/01/02 08:51:55;;;;;;;9.07;3.65;;;;;;;12.11;93.46;101076.97;5011651;28;20049;-50
2022/01/02 08:54:42;;;;;;;12.85;3.80;;;;;;;12.14;95.12;101086.53;5012190;28;20048;-52
2022/01/02 08:57:28;;;;;;;13.60;4.25;;;;;;;12.23;95.95;101087.63;5011911;28;20053;-50
2022/01/02 09:00:14;;;;;;;9.07;3.28;;;;;;;12.20;93.08;101090.13;5013254;28;20195;-51
2022/01/02 09:03:00;;;;;;;6.57;3.13;;;;;;;12.13;91.59;101090.38;5011331;28;20050;-51
2022/01/02 09:05:46;;;;;;;;;;;;;;;12.13;93.90;101084.91;5013739;28;20364;-48
2022/01/02 09:08:33;;;;;;;7.53;3.47;;;;;;;12.11;92.00;101084.34;5013312;28;19932;-51
2022/01/02 09:11:19;;;;;;;13.20;4.10;;;;;;;12.18;91.93;101082.19;5012919;28;20037;-48
2022/01/02 09:14:05;;;;;;;10.85;4.50;;;;;;;12.14;90.91;101089.28;5008868;28;20039;-51
2022/01/02 09:16:52;;;;;;;9.95;4.32;;;;;;;12.18;90.94;101082.19;4993260;28;20097;-51
2022/01/02 09:19:38;;;;;;;10.30;4.60;;;;;;;12.15;89.86;101089.00;4992772;28;20058;-51
2022/01/02 09:22:24;;;;;;;9.02;4.00;;;;;;;12.27;89.88;101088.75;4994533;28;20397;-50
2022/01/02 09:25:11;;;;;;;9.02;3.65;;;;;;;12.20;90.17;101090.13;4993640;28;20182;-49
2022/01/02 09:27:57;;;;;;;12.57;3.85;;;;;;;12.24;90.65;101088.44;4993367;28;20057;-51
2022/01/02 09:30:43;;;;;;;11.48;4.28;;;;;;;12.26;89.57;101084.34;4993079;28;20116;-49
2022/01/02 09:33:30;;;;;;;8.93;4.05;;;;;;;12.17;89.59;101088.75;4993966;28;20049;-47
2022/01/02 09:36:16;;;;;;;10.55;3.70;;;;;;;12.18;89.00;101098.56;4993210;28;20563;-49
2022/01/02 09:39:04;;;;;;;7.50;3.90;;;;;;;12.21;88.94;101095.28;4993254;28;20049;-48
2022/01/02 09:41:50;;;;;;;7.75;4.00;;;;;;;12.17;89.33;101091.47;4991813;28;20188;-52
2022/01/02 09:44:36;;;;;;;9.57;4.43;;;;;;;12.18;90.41;101093.09;4993270;28;20457;-50
2022/01/02 09:47:23;;;;;;;9.50;4.28;;;;;;;12.17;89.67;101096.94;4993161;28;20069;-50
2022/01/02 09:50:10;;;;;;;9.65;4.18;;;;;;;12.17;89.25;101096.94;4992900;28;20057;-50
2022/01/02 09:52:56;;;;;;;16.05;5.63;;;;;;;12.25;90.77;101099.13;5006845;28;20503;-50
2022/01/02 09:55:24;;;;;;;9.93;4.40;;;;;;;12.17;89.51;101102.41;5012445;28;20042;-55
2022/01/02 09:57:53;;;;;;;12.35;4.10;;;;;;;12.22;89.96;101098.84;5013260;28;20132;-54
2022/01/02 10:00:21;;;;;;;11.50;5.05;;;;;;;12.23;89.52;101095.84;5012290;28;20056;-51
2022/01/02 10:03:09;;;;;;;10.15;4.10;;;;;;;12.22;89.44;101105.13;5010856;28;20042;-50
2022/01/02 10:05:59;;;;;;;10.55;4.50;;;;;;;12.17;89.75;101096.94;5012983;28;20046;-53
2022/01/02 10:08:30;;;;;;;9.65;4.30;;;;;;;12.16;90.23;101081.63;5016603;28;20050;-52
2022/01/02 10:11:03;;;;;;;13.05;4.88;;;;;;;12.28;89.77;101100.50;5016328;28;20393;-49
2022/01/02 10:13:40;;;;;;;10.70;4.63;;;;;;;12.34;89.85;101093.94;5014681;28;20077;-48
2022/01/02 10:16:31;;;;;;;14.02;5.70;;;;;;;12.36;90.41;101098.03;5016114;28;20068;-50
2022/01/02 10:19:20;;;;;;;12.00;4.40;;;;;;;12.40;89.45;101108.41;5014345;28;20068;-48
2022/01/02 10:21:57;;;;;;;11.95;4.50;;;;;;;12.49;89.78;101095.84;5016260;28;20053;-48
2022/01/02 10:24:27;;;;;;;11.18;5.00;;;;;;;12.50;89.57;101095.56;5014386;28;20046;-50
2022/01/02 10:27:16;;;;;;;11.10;4.80;;;;;;;12.45;88.53;101109.22;5014641;28;20510;-48
2022/01/02 10:30:01;;;;;;;9.57;4.60;;;;;;;12.45;89.41;101106.50;5014501;28;20488;-49
2022/01/02 10:32:37;;;;;;;9.40;4.03;;;;;;;12.42;89.60;101103.50;5016203;28;20079;-50
2022/01/02 10:35:24;;;;;;;;;;;;;;;12.45;89.28;101098.28;5014421;28;20052;-49
2022/01/02 10:37:57;;;;;;;11.40;4.38;;;;;;;12.42;88.82;101098.03;5015757;28;19921;-51
2022/01/02 10:40:36;;;;;;;12.20;4.68;;;;;;;12.39;88.71;101082.16;5014628;28;20042;-48
2022/01/02 10:43:30;;;;;;;10.73;4.10;;;;;;;12.50;88.79;101075.59;5015645;28;20120;-49
2022/01/02 10:46:03;;;;;;;11.15;4.60;;;;;;;12.45;88.44;101072.88;5013300;28;20133;-48
2022/01/02 10:48:36;;;;;;;10.15;4.43;;;;;;;12.42;88.81;101070.72;5015018;28;20038;-48
2022/01/02 10:51:09;;;;;;;12.65;4.90;;;;;;;12.55;89.11;101070.97;5014345;28;20038;-49
2022/01/02 10:53:44;;;;;;;12.00;4.85;;;;;;;12.50;89.05;101076.41;5015331;28;20050;-45
2022/01/02 10:56:17;;;;;;;15.40;5.82;;;;;;;12.56;90.65;101077.25;5012721;28;20038;-49
2022/01/02 10:58:47;;;;;;;13.07;4.28;;;;;;;12.53;88.63;101069.59;5014333;28;20046;-49
2022/01/02 11:01:15;;;;;;;10.85;4.43;;;;;;;12.57;92.61;101073.41;5015280;28;20433;-50
2022/01/02 11:03:47;;;;;;;11.15;4.50;;;;;;;12.54;88.96;101069.31;5013929;28;20042;-49
2022/01/02 11:06:25;;;;;;;10.82;4.28;;;;;;;12.58;90.02;101073.16;5013949;28;20397;-49
2022/01/02 11:08:54;;;;;;;10.25;3.75;;;;;;;12.53;89.61;101066.84;5015122;28;20049;-49
2022/01/02 11:11:21;;;;;;;10.85;4.70;;;;;;;12.46;89.03;101077.25;5013713;28;20038;-49
2022/01/02 11:13:50;;;;;;;8.98;4.10;;;;;;;12.44;89.70;101074.00;5014132;28;20060;-50
2022/01/02 11:16:19;;;;;;;12.32;4.55;;;;;;;12.43;90.46;101075.06;5011835;28;20052;-48
2022/01/02 11:18:47;;;;;;;17.10;4.57;;;;;;;12.57;91.05;101067.94;5014420;28;20057;-48
2022/01/02 11:21:15;;;;;;;12.02;4.47;;;;;;;12.53;89.55;101073.16;5015268;28;20045;-46
2022/01/02 11:24:01;;;;;;;11.98;4.53;;;;;;;12.51;89.46;101072.63;5014688;28;20459;-47
2022/01/02 11:26:37;;;;;;;13.13;4.38;;;;;;;12.51;90.25;101063.59;4996942;28;20403;-50
2022/01/02 11:29:14;;;;;;;12.07;4.78;;;;;;;12.52;90.14;101060.56;5015153;28;20069;-53
2022/01/02 11:31:46;;;;;;;10.93;4.13;;;;;;;12.49;90.13;101066.59;4995047;28;20129;-52
2022/01/02 11:34:27;;;;;;;8.80;4.15;;;;;;;12.51;91.07;101063.59;4995205;28;20046;-49
2022/01/02 11:37:21;;;;;;;9.25;4.07;;;;;;;12.49;90.41;101072.06;5012727;28;20060;-48
2022/01/02 11:39:59;;;;;;;8.95;4.18;;;;;;;12.56;90.01;101072.59;5013355;28;20049;-52
2022/01/02 11:42:41;;;;;;;12.00;4.30;;;;;;;12.53;90.32;101086.00;5014596;28;20058;-52
2022/01/02 11:45:21;;;;;;;12.40;4.35;;;;;;;12.52;90.50;101078.91;5014670;28;20038;-48
2022/01/02 11:47:49;;;;;;;10.80;4.47;;;;;;;12.49;90.82;101084.91;4995021;28;20129;-45
2022/01/02 11:50:36;;;;;;;12.07;4.40;;;;;;;12.51;91.03;101082.72;4994787;28;20054;-46
2022/01/02 11:53:13;;;;;;;9.07;4.30;;;;;;;12.52;91.14;101084.38;4993507;28;20390;-50
2022/01/02 11:55:42;;;;;;;13.52;4.05;;;;;;;12.53;90.33;101083.25;4994472;28;20049;-51
2022/01/02 11:58:10;;;;;;;10.02;4.30;;;;;;;12.55;90.35;101075.59;4995974;28;20077;-49
2022/01/02 12:00:43;;;;;;;12.88;4.63;;;;;;;12.60;90.05;101083.78;4995007;28;20126;-49
2022/01/02 12:03:44;;;;;;;12.45;3.90;;;;;;;12.58;90.15;101089.56;4994611;28;20050;-50
2022/01/02 12:06:33;;;;;;;11.18;4.32;;;;;;;12.55;89.82;101075.59;4994530;28;20045;-48
2022/01/02 12:09:03;;;;;;;12.35;4.20;;;;;;;12.59;90.50;101073.97;4975831;28;20493;-48
2022/01/02 12:11:30;;;;;;;13.02;4.30;;;;;;;12.66;90.06;101071.78;4995270;28;20433;-48
2022/01/02 12:14:25;;;;;;;9.48;4.13;;;;;;;12.63;90.46;101072.34;5012312;28;20049;-48
2022/01/02 12:17:08;;;;;;;12.73;3.95;;;;;;;12.63;90.24;101063.28;4994648;28;20050;-49
2022/01/02 12:20:11;;;;;;;13.30;4.47;;;;;;;12.65;90.47;101061.94;4997800;28;20065;-49
2022/01/02 12:22:46;;;;;;;12.10;3.80;;;;;;;12.66;90.63;101065.50;4959857;28;20050;-53
2022/01/02 12:25:19;;;;;;;11.93;4.32;;;;;;;12.62;90.37;101062.47;4991838;28;20053;-50
2022/01/02 12:27:52;;;;;;;12.07;4.32;;;;;;;12.67;90.51;101062.47;4975811;28;20055;-48
2022/01/02 12:30:20;;;;;;;9.50;4.45;;;;;;;12.75;90.42;101063.84;4990691;28;20149;-51
2022/01/02 12:32:48;;;;;;;10.25;4.43;;;;;;;12.75;90.67;101066.56;4991292;28;20042;-48
2022/01/02 12:35:16;;;;;;;10.40;3.92;;;;;;;12.69;90.25;101063.00;4991278;28;20153;-49
2022/01/02 12:37:44;;;;;;;11.30;4.20;;;;;;;12.64;90.45;101068.50;4974520;28;20050;-51
2022/01/02 12:40:16;;;;;;;14.00;4.25;;;;;;;12.63;90.38;101057.81;4991721;28;20405;-51
2022/01/02 12:42:46;;;;;;;16.50;4.20;;;;;;;12.63;90.68;101050.47;4358800;28;10001947;-49
2022/01/02 12:45:16;;;;;;;9.07;3.88;;;;;;;12.66;90.88;101047.16;4989749;28;20254;-49
2022/01/02 12:47:52;;;;;;;12.85;4.47;;;;;;;12.66;90.21;101049.09;4972301;28;20400;-49